createdAt,value
2022-08-31T00:00:14.997Z,42.14
2022-08-31T00:03:00.506Z,42.80
2022-08-31T00:05:28.242Z,42.22
2022-08-31T00:07:55.694Z,42.87
2022-08-31T00:10:31.858Z,42.71
2022-08-31T00:13:02.956Z,43.28
2022-08-31T00:15:30.692Z,42.82
2022-08-31T00:17:58.266Z,42.71
2022-08-31T00:20:33.665Z,43.17
2022-08-31T00:23:09.992Z,43.10
2022-08-31T00:25:40.682Z,42.70
2022-08-31T00:28:09.495Z,43.79
2022-08-31T00:30:37.043Z,43.53
2022-08-31T00:33:05.619Z,43.52
2022-08-31T00:35:36.136Z,43.56
2022-08-31T00:38:06.363Z,44.59
2022-08-31T00:40:34.207Z,44.21
2022-08-31T00:43:13.203Z,44.48
2022-08-31T00:45:40.420Z,43.98
2022-08-31T00:48:07.382Z,44.06
2022-08-31T00:50:34.576Z,44.00
2022-08-31T00:53:02.056Z,44.37
2022-08-31T00:55:37.090Z,44.23
2022-08-31T00:58:09.736Z,44.36
2022-08-31T01:00:38.058Z,44.48
2022-08-31T01:03:07.945Z,44.48
2022-08-31T01:05:36.111Z,44.32
2022-08-31T01:08:04.461Z,44.54
2022-08-31T01:10:39.141Z,44.20
2022-08-31T01:13:07.200Z,44.20
2022-08-31T01:15:36.765Z,44.67
2022-08-31T01:18:06.421Z,44.96
2022-08-31T01:21:11.093Z,44.50
2022-08-31T01:23:43.308Z,44.79
2022-08-31T01:26:15.247Z,45.57
2022-08-31T01:28:42.363Z,46.21
2022-08-31T01:31:23.723Z,45.17
2022-08-31T01:33:50.979Z,46.37
2022-08-31T01:36:19.057Z,46.97
2022-08-31T01:38:46.718Z,49.23
2022-08-31T01:41:19.924Z,50.33
2022-08-31T01:43:46.810Z,51.29
2022-08-31T01:46:14.646Z,51.22
2022-08-31T01:48:44.446Z,52.41
2022-08-31T01:51:15.443Z,53.30
2022-08-31T01:53:45.435Z,54.41
2022-08-31T01:56:38.907Z,55.65
2022-08-31T01:59:08.655Z,57.03
2022-08-31T02:01:40.811Z,57.58
2022-08-31T02:04:11.047Z,58.79
2022-08-31T02:06:41.841Z,58.56
2022-08-31T02:09:09.495Z,59.64
2022-08-31T02:11:36.732Z,61.09
2022-08-31T02:14:06.075Z,62.55
2022-08-31T02:16:33.058Z,63.68
2022-08-31T02:19:00.015Z,64.26
2022-08-31T02:21:27.088Z,64.97
2022-08-31T02:23:54.381Z,64.83
2022-08-31T02:26:23.431Z,65.84
2022-08-31T02:28:50.293Z,66.59
2022-08-31T02:31:17.746Z,65.96
2022-08-31T02:33:44.744Z,66.21
2022-08-31T02:36:12.269Z,66.96
2022-08-31T02:38:40.281Z,67.16
2022-08-31T02:41:07.731Z,67.33
2022-08-31T02:43:35.253Z,67.65
2022-08-31T02:46:02.361Z,67.28
2022-08-31T02:48:29.252Z,68.40
2022-08-31T02:51:08.216Z,68.26
2022-08-31T02:53:36.960Z,67.34
2022-08-31T02:56:05.642Z,67.32
2022-08-31T02:58:32.554Z,67.56
2022-08-31T03:00:59.443Z,67.63
2022-08-31T03:03:26.308Z,69.02
2022-08-31T03:05:53.238Z,69.55
2022-08-31T03:08:20.096Z,69.75
2022-08-31T03:10:47.050Z,70.03
2022-08-31T03:13:14.070Z,71.62
2022-08-31T03:15:43.601Z,72.64
2022-08-31T03:18:10.597Z,72.62
2022-08-31T03:20:37.912Z,71.96
2022-08-31T03:23:05.404Z,71.86
2022-08-31T03:25:32.828Z,71.48
2022-08-31T03:27:59.681Z,71.88
2022-08-31T03:30:29.697Z,71.64
2022-08-31T03:32:59.306Z,71.20
2022-08-31T03:35:30.512Z,70.34
2022-08-31T03:37:57.501Z,70.09
2022-08-31T03:40:24.720Z,69.73
2022-08-31T03:42:51.688Z,69.51
2022-08-31T03:45:18.556Z,69.32
2022-08-31T03:47:45.828Z,69.78
2022-08-31T03:50:13.271Z,69.68
2022-08-31T03:52:40.143Z,69.10
2022-08-31T03:55:08.619Z,69.00
2022-08-31T03:57:35.713Z,68.86
2022-08-31T04:00:04.802Z,69.03
2022-08-31T04:02:36.827Z,69.42
2022-08-31T04:05:05.546Z,69.32
2022-08-31T04:07:42.637Z,70.04
2022-08-31T04:10:12.030Z,69.56
2022-08-31T04:12:39.229Z,69.28
2022-08-31T04:15:08.491Z,69.29
2022-08-31T04:17:35.626Z,69.46
2022-08-31T04:20:02.751Z,68.93
2022-08-31T04:22:52.149Z,68.85
2022-08-31T04:25:21.469Z,68.70
2022-08-31T04:27:50.228Z,68.46
2022-08-31T04:30:20.839Z,68.45
2022-08-31T04:32:48.722Z,67.77
2022-08-31T04:35:16.231Z,67.79
2022-08-31T04:37:46.923Z,67.59
2022-08-31T04:40:20.255Z,67.45
2022-08-31T04:42:52.322Z,67.06
2022-08-31T04:45:19.182Z,67.53
2022-08-31T04:47:46.109Z,67.60
2022-08-31T04:50:15.340Z,67.48
2022-08-31T04:52:43.689Z,67.53
2022-08-31T04:55:12.143Z,67.33
2022-08-31T04:57:40.919Z,67.22
2022-08-31T05:00:09.847Z,67.02
2022-08-31T05:02:39.463Z,66.41
2022-08-31T05:05:07.086Z,64.84
2022-08-31T05:07:33.968Z,63.91
2022-08-31T05:10:00.939Z,62.42
2022-08-31T05:12:30.177Z,60.30
2022-08-31T05:14:57.120Z,60.51
2022-08-31T05:17:24.047Z,59.82
2022-08-31T05:19:52.712Z,59.12
2022-08-31T05:22:19.655Z,59.58
2022-08-31T05:24:48.089Z,59.47
2022-08-31T05:27:15.164Z,58.55
2022-08-31T05:29:42.313Z,57.92
2022-08-31T05:32:09.217Z,57.35
2022-08-31T05:34:36.291Z,57.31
2022-08-31T05:37:03.228Z,56.74
2022-08-31T05:39:31.971Z,55.95
2022-08-31T05:41:59.004Z,55.51
2022-08-31T05:44:29.215Z,54.87
2022-08-31T05:47:03.446Z,54.71
2022-08-31T05:49:32.219Z,54.35
2022-08-31T05:52:01.106Z,54.61
2022-08-31T05:54:28.435Z,53.96
2022-08-31T05:56:55.343Z,54.31
2022-08-31T05:59:30.972Z,54.36
2022-08-31T06:01:58.849Z,54.66
2022-08-31T06:04:27.339Z,55.00
2022-08-31T06:06:54.790Z,54.76
2022-08-31T06:09:21.855Z,54.81
2022-08-31T06:11:48.836Z,54.87
2022-08-31T06:14:15.875Z,54.97
2022-08-31T06:16:44.610Z,54.47
2022-08-31T06:19:12.226Z,54.53
2022-08-31T06:21:49.832Z,54.51
2022-08-31T06:24:18.987Z,54.17
2022-08-31T06:26:55.420Z,54.29
2022-08-31T06:29:25.186Z,54.74
2022-08-31T06:31:52.119Z,54.61
2022-08-31T06:34:20.286Z,54.60
2022-08-31T06:36:48.450Z,55.08
2022-08-31T06:39:17.675Z,55.60
2022-08-31T06:41:44.539Z,55.25
2022-08-31T06:44:13.880Z,55.80
2022-08-31T06:46:42.313Z,55.23
2022-08-31T06:49:15.623Z,55.78
2022-08-31T06:51:43.830Z,55.19
2022-08-31T06:54:28.965Z,54.67
2022-08-31T06:56:58.667Z,54.62
2022-08-31T06:59:29.344Z,54.31
2022-08-31T07:01:59.157Z,54.33
2022-08-31T07:04:27.503Z,54.11
2022-08-31T07:06:54.360Z,54.25
2022-08-31T07:09:21.235Z,54.12
2022-08-31T07:11:52.286Z,53.85
2022-08-31T07:14:24.044Z,53.96
2022-08-31T07:16:53.977Z,53.34
2022-08-31T07:19:22.036Z,53.05
2022-08-31T07:22:01.242Z,53.04
2022-08-31T07:24:33.227Z,52.96
2022-08-31T07:27:09.916Z,53.12
2022-08-31T07:29:41.254Z,53.01
2022-08-31T07:32:10.860Z,53.13
2022-08-31T07:34:38.609Z,53.35
2022-08-31T07:37:25.837Z,53.50
2022-08-31T07:40:12.601Z,54.71
2022-08-31T07:42:44.386Z,56.41
2022-08-31T07:45:23.164Z,58.88
2022-08-31T07:47:52.083Z,59.92
2022-08-31T07:50:21.413Z,59.65
2022-08-31T07:52:53.892Z,61.15
2022-08-31T07:55:24.065Z,60.87
2022-08-31T07:57:54.666Z,61.74
2022-08-31T08:00:28.486Z,62.50
2022-08-31T08:02:56.633Z,62.97
2022-08-31T08:05:28.890Z,64.13
2022-08-31T08:08:09.346Z,65.07
2022-08-31T08:10:42.362Z,67.13
2022-08-31T08:13:12.442Z,69.51
2022-08-31T08:15:41.707Z,69.92
2022-08-31T08:18:10.713Z,71.15
2022-08-31T08:20:38.996Z,71.76
2022-08-31T08:23:15.626Z,72.46
2022-08-31T08:25:47.274Z,73.51
2022-08-31T08:28:38.657Z,76.01
2022-08-31T08:31:11.749Z,77.11
2022-08-31T08:33:39.381Z,77.18
2022-08-31T08:36:08.369Z,79.19
2022-08-31T08:38:42.336Z,81.05
2022-08-31T08:41:19.089Z,79.73
2022-08-31T08:43:53.157Z,79.23
2022-08-31T08:46:47.778Z,82.46
2022-08-31T08:49:19.135Z,82.60
2022-08-31T08:51:50.592Z,82.58
2022-08-31T08:54:44.046Z,82.65
2022-08-31T08:57:36.990Z,83.34
2022-08-31T09:00:17.932Z,82.25
2022-08-31T09:02:50.660Z,83.10
2022-08-31T09:05:59.112Z,82.29
2022-08-31T09:08:58.914Z,84.30
2022-08-31T09:11:52.530Z,83.41
2022-08-31T09:14:59.056Z,82.96
2022-08-31T09:17:34.617Z,84.82
2022-08-31T09:20:03.998Z,84.99
2022-08-31T09:22:50.586Z,84.55
2022-08-31T09:25:45.286Z,84.31
2022-08-31T09:28:15.227Z,82.23
2022-08-31T09:30:52.074Z,82.63
2022-08-31T09:33:33.327Z,83.54
2022-08-31T09:36:20.038Z,83.86
2022-08-31T09:38:47.852Z,82.02
2022-08-31T09:41:38.054Z,81.18
2022-08-31T09:44:26.139Z,79.99
2022-08-31T09:46:56.794Z,78.05
2022-08-31T09:49:38.171Z,77.83
2022-08-31T09:52:49.078Z,78.50
2022-08-31T09:55:24.778Z,77.31
2022-08-31T09:58:03.087Z,78.55
2022-08-31T10:00:41.193Z,78.50
2022-08-31T10:03:30.537Z,78.23
2022-08-31T10:05:57.479Z,76.86
2022-08-31T10:08:58.049Z,77.03
2022-08-31T10:11:31.140Z,76.90
2022-08-31T10:14:16.847Z,77.00
2022-08-31T10:17:13.085Z,76.70
2022-08-31T10:20:08.839Z,75.96
2022-08-31T10:22:41.861Z,76.52
2022-08-31T10:25:32.969Z,76.41
2022-08-31T10:28:15.349Z,76.10
2022-08-31T10:30:51.917Z,76.53
2022-08-31T10:33:51.775Z,77.59
2022-08-31T10:36:20.033Z,76.79
2022-08-31T10:38:49.624Z,76.28
2022-08-31T10:41:16.367Z,75.55
2022-08-31T10:43:46.581Z,75.32
2022-08-31T10:46:15.069Z,75.01
2022-08-31T10:48:47.318Z,75.29
2022-08-31T10:51:31.542Z,74.98
2022-08-31T10:54:16.221Z,73.57
2022-08-31T10:57:00.827Z,73.88
2022-08-31T11:00:31.180Z,73.81
2022-08-31T11:03:21.876Z,72.43
2022-08-31T11:06:34.153Z,72.67
2022-08-31T11:09:23.757Z,72.37
2022-08-31T11:12:06.941Z,72.14
2022-08-31T11:14:53.272Z,71.32
2022-08-31T11:17:27.045Z,71.12
2022-08-31T11:20:28.413Z,72.48
2022-08-31T11:23:15.196Z,72.90
2022-08-31T11:26:27.867Z,72.28
2022-08-31T11:29:12.889Z,72.92
2022-08-31T11:31:40.385Z,73.43
2022-08-31T11:34:25.668Z,74.18
2022-08-31T11:37:04.936Z,74.07
2022-08-31T11:39:35.490Z,72.96
2022-08-31T11:42:28.074Z,71.72
2022-08-31T11:45:32.369Z,71.28
2022-08-31T11:48:00.530Z,70.95
2022-08-31T11:50:36.586Z,70.20
2022-08-31T11:53:44.388Z,70.49
2022-08-31T11:56:15.131Z,69.82
2022-08-31T11:58:51.912Z,69.39
2022-08-31T12:01:18.946Z,68.28
2022-08-31T12:04:03.136Z,67.25
2022-08-31T12:06:36.164Z,67.64
2022-08-31T12:09:41.850Z,66.38
2022-08-31T12:13:19.478Z,66.12
2022-08-31T12:16:30.061Z,65.94
2022-08-31T12:19:51.334Z,64.62
2022-08-31T12:23:13.344Z,65.99
2022-08-31T12:26:21.621Z,65.18
2022-08-31T12:29:21.719Z,64.06
2022-08-31T12:32:29.876Z,64.46
2022-08-31T12:35:04.420Z,65.33
2022-08-31T12:37:37.818Z,65.96
2022-08-31T12:40:24.215Z,65.89
2022-08-31T12:43:03.371Z,65.86
2022-08-31T12:46:01.971Z,65.27
2022-08-31T12:48:52.863Z,65.71
2022-08-31T12:51:40.583Z,64.95
2022-08-31T12:54:15.433Z,64.07
2022-08-31T12:57:27.164Z,65.42
2022-08-31T13:00:10.467Z,64.51
2022-08-31T13:02:44.739Z,63.39
2022-08-31T13:05:35.019Z,63.65
2022-08-31T13:08:19.669Z,62.40
2022-08-31T13:10:46.697Z,62.76
2022-08-31T13:13:27.215Z,62.29
2022-08-31T13:16:07.898Z,61.30
2022-08-31T13:18:36.694Z,62.10
2022-08-31T13:21:08.209Z,63.02
2022-08-31T13:23:46.488Z,63.27
2022-08-31T13:26:25.740Z,62.39
2022-08-31T13:28:59.908Z,63.09
2022-08-31T13:31:35.295Z,62.95
2022-08-31T13:34:09.769Z,63.17
2022-08-31T13:36:47.765Z,62.45
2022-08-31T13:39:42.702Z,63.50
2022-08-31T13:42:42.769Z,63.29
2022-08-31T13:45:31.816Z,64.36
2022-08-31T13:48:12.339Z,65.64
2022-08-31T13:50:56.637Z,65.65
2022-08-31T13:53:42.814Z,65.50
2022-08-31T13:56:56.151Z,65.38
2022-08-31T13:59:26.566Z,66.02
2022-08-31T14:02:07.808Z,66.19
2022-08-31T14:04:49.435Z,66.43
2022-08-31T14:07:38.920Z,66.80
2022-08-31T14:10:26.153Z,66.93
2022-08-31T14:13:13.860Z,67.43
2022-08-31T14:16:02.049Z,67.52
2022-08-31T14:18:40.073Z,66.79
2022-08-31T14:21:20.620Z,66.13
2022-08-31T14:24:02.355Z,66.84
2022-08-31T14:26:34.007Z,66.90
2022-08-31T14:29:12.242Z,67.08
2022-08-31T14:31:52.092Z,66.76
2022-08-31T14:34:34.764Z,66.87
2022-08-31T14:37:07.425Z,67.47
2022-08-31T14:39:43.112Z,67.57
2022-08-31T14:42:19.704Z,67.51
2022-08-31T14:45:03.892Z,67.79
2022-08-31T14:47:36.063Z,67.66
2022-08-31T14:50:07.220Z,68.84
2022-08-31T14:52:37.110Z,68.27
2022-08-31T14:55:08.974Z,67.68
2022-08-31T14:57:36.755Z,68.30
2022-08-31T15:00:07.007Z,67.78
2022-08-31T15:02:35.006Z,68.35
2022-08-31T15:05:06.333Z,67.79
2022-08-31T15:07:37.686Z,68.56
2022-08-31T15:10:07.808Z,68.44
2022-08-31T15:12:35.734Z,68.78
2022-08-31T15:15:02.927Z,68.71
2022-08-31T15:17:36.072Z,69.45
2022-08-31T15:20:05.937Z,69.60
2022-08-31T15:22:35.020Z,68.96
2022-08-31T15:25:02.103Z,69.33
2022-08-31T15:27:31.328Z,69.04
2022-08-31T15:30:07.541Z,68.55
2022-08-31T15:32:39.609Z,68.59
2022-08-31T15:35:07.524Z,68.33
2022-08-31T15:37:34.413Z,68.19
2022-08-31T15:40:05.070Z,68.11
2022-08-31T15:42:38.229Z,67.41
2022-08-31T15:45:07.027Z,67.72
2022-08-31T15:47:57.300Z,67.71
2022-08-31T15:50:31.519Z,67.68
2022-08-31T15:53:09.531Z,67.21
2022-08-31T15:55:40.107Z,66.56
2022-08-31T15:58:08.366Z,66.09
2022-08-31T16:00:36.551Z,65.42
2022-08-31T16:03:03.816Z,65.08
2022-08-31T16:05:35.529Z,64.27
2022-08-31T16:08:02.909Z,63.92
2022-08-31T16:10:31.009Z,63.17
2022-08-31T16:12:58.177Z,62.34
2022-08-31T16:15:26.239Z,62.23
2022-08-31T16:17:57.411Z,60.42
2022-08-31T16:20:27.214Z,56.86
2022-08-31T16:22:54.396Z,59.86
2022-08-31T16:25:21.333Z,58.20
2022-08-31T16:27:48.197Z,58.66
2022-08-31T16:30:15.984Z,56.13
2022-08-31T16:32:42.932Z,54.79
2022-08-31T16:35:10.630Z,53.69
2022-08-31T16:37:37.764Z,53.82
2022-08-31T16:40:05.804Z,53.94
2022-08-31T16:42:32.764Z,51.69
2022-08-31T16:45:02.475Z,51.62
2022-08-31T16:47:29.833Z,51.76
2022-08-31T16:49:58.276Z,51.22
2022-08-31T16:52:28.631Z,50.95
2022-08-31T16:54:59.354Z,51.23
2022-08-31T16:57:30.175Z,50.93
2022-08-31T16:59:58.364Z,50.73
2022-08-31T17:02:26.382Z,50.64
2022-08-31T17:04:54.717Z,50.87
2022-08-31T17:07:24.185Z,50.61
2022-08-31T17:09:56.632Z,50.71
2022-08-31T17:12:25.932Z,51.06
2022-08-31T17:14:53.319Z,51.27
2022-08-31T17:17:26.473Z,51.95
2022-08-31T17:19:58.613Z,50.82
2022-08-31T17:22:32.526Z,50.43
2022-08-31T17:25:04.369Z,50.46
2022-08-31T17:27:33.620Z,49.83
2022-08-31T17:30:04.935Z,50.14
2022-08-31T17:32:32.243Z,51.31
2022-08-31T17:34:59.213Z,51.70
2022-08-31T17:37:36.040Z,51.42
2022-08-31T17:40:08.061Z,52.17
2022-08-31T17:42:35.841Z,52.37
2022-08-31T17:45:05.676Z,52.25
2022-08-31T17:47:33.218Z,52.38
2022-08-31T17:50:00.445Z,52.47
2022-08-31T17:52:28.158Z,52.86
2022-08-31T17:54:55.250Z,53.41
2022-08-31T17:57:26.012Z,54.25
2022-08-31T17:59:54.778Z,54.26
2022-08-31T18:02:32.340Z,54.77
2022-08-31T18:05:00.932Z,55.13
2022-08-31T18:07:28.136Z,55.99
2022-08-31T18:09:55.043Z,56.49
2022-08-31T18:12:22.738Z,56.49
2022-08-31T18:14:49.995Z,55.68
2022-08-31T18:17:18.223Z,56.33
2022-08-31T18:19:45.385Z,56.59
2022-08-31T18:22:14.330Z,56.60
2022-08-31T18:24:43.016Z,57.07
2022-08-31T18:27:14.966Z,57.13
2022-08-31T18:29:43.098Z,55.93
2022-08-31T18:32:10.771Z,55.37
2022-08-31T18:34:44.081Z,55.49
2022-08-31T18:37:12.802Z,55.66
2022-08-31T18:39:59.613Z,56.00
2022-08-31T18:42:46.649Z,55.55
2022-08-31T18:45:16.609Z,56.91
2022-08-31T18:48:20.863Z,56.46
2022-08-31T18:50:44.769Z,56.94
2022-08-31T18:53:15.006Z,56.89
2022-08-31T18:55:42.615Z,57.09
2022-08-31T18:58:09.783Z,57.58
2022-08-31T19:00:36.894Z,57.63
2022-08-31T19:03:04.499Z,57.58
2022-08-31T19:05:32.707Z,57.39
2022-08-31T19:08:00.477Z,57.26
2022-08-31T19:10:28.403Z,56.95
2022-08-31T19:12:55.908Z,57.29
2022-08-31T19:15:25.479Z,56.84
2022-08-31T19:17:58.855Z,56.94
2022-08-31T19:20:29.254Z,56.90
2022-08-31T19:22:56.396Z,56.35
2022-08-31T19:25:24.453Z,56.70
2022-08-31T19:27:51.944Z,56.36
2022-08-31T19:30:24.394Z,55.97
2022-08-31T19:32:53.639Z,55.64
2022-08-31T19:35:20.699Z,55.55
2022-08-31T19:37:51.901Z,54.58
2022-08-31T19:40:19.370Z,54.27
2022-08-31T19:43:43.006Z,54.58
2022-08-31T19:45:43.605Z,54.58
2022-08-31T19:48:12.752Z,54.86
2022-08-31T19:50:42.395Z,55.25
2022-08-31T19:53:12.107Z,55.36
2022-08-31T19:55:50.501Z,55.21
2022-08-31T19:58:26.535Z,55.29
2022-08-31T20:01:00.777Z,55.23
2022-08-31T20:03:31.088Z,55.79
2022-08-31T20:05:59.383Z,56.28
2022-08-31T20:08:26.272Z,56.67
2022-08-31T20:10:53.208Z,57.09
2022-08-31T20:13:22.809Z,57.30
2022-08-31T20:15:50.924Z,57.67
2022-08-31T20:18:18.559Z,57.63
2022-08-31T20:20:48.419Z,57.80
2022-08-31T20:23:18.764Z,58.10
2022-08-31T20:25:49.191Z,57.96
2022-08-31T20:28:17.444Z,57.96
2022-08-31T20:30:45.167Z,58.20
2022-08-31T20:33:12.312Z,58.41
2022-08-31T20:35:47.277Z,58.62
2022-08-31T20:38:17.027Z,58.18
2022-08-31T20:40:47.949Z,57.73
2022-08-31T20:43:15.190Z,57.60
2022-08-31T20:45:42.662Z,57.68
2022-08-31T20:48:29.087Z,58.07
2022-08-31T20:50:56.854Z,58.11
2022-08-31T20:53:42.379Z,58.53
2022-08-31T20:56:14.874Z,58.35
2022-08-31T20:58:48.273Z,58.37
2022-08-31T21:01:16.029Z,58.45
2022-08-31T21:03:43.404Z,58.30
2022-08-31T21:06:12.209Z,58.09
2022-08-31T21:08:42.437Z,58.46
2022-08-31T21:11:15.248Z,58.74
2022-08-31T21:13:43.733Z,59.03
2022-08-31T21:16:10.936Z,59.09
2022-08-31T21:18:38.746Z,59.40
2022-08-31T21:21:09.559Z,59.77
2022-08-31T21:23:38.295Z,59.81
2022-08-31T21:26:08.674Z,59.93
2022-08-31T21:28:38.690Z,60.02
2022-08-31T21:31:16.573Z,59.86
2022-08-31T21:33:47.046Z,59.74
2022-08-31T21:36:15.991Z,60.00
2022-08-31T21:38:45.037Z,59.95
2022-08-31T21:41:14.912Z,59.45
2022-08-31T21:43:41.827Z,59.04
2022-08-31T21:46:21.772Z,59.09
2022-08-31T21:48:51.167Z,58.71
2022-08-31T21:51:25.732Z,59.38
2022-08-31T21:53:56.384Z,59.33
2022-08-31T21:56:26.827Z,59.59
2022-08-31T21:58:54.116Z,59.49
2022-08-31T22:01:22.972Z,59.36
2022-08-31T22:03:57.458Z,59.47
2022-08-31T22:06:30.822Z,59.54
2022-08-31T22:09:02.085Z,59.75
2022-08-31T22:11:35.039Z,60.01
2022-08-31T22:14:03.650Z,60.03
2022-08-31T22:16:31.985Z,60.09
2022-08-31T22:19:01.233Z,60.17
2022-08-31T22:21:33.106Z,60.83
2022-08-31T22:24:07.637Z,60.89
2022-08-31T22:26:42.717Z,60.93
2022-08-31T22:29:13.423Z,60.95
2022-08-31T22:31:41.784Z,60.91
2022-08-31T22:34:11.175Z,60.62
2022-08-31T22:36:38.455Z,60.41
2022-08-31T22:39:10.810Z,60.47
2022-08-31T22:41:41.141Z,60.93
2022-08-31T22:44:16.312Z,61.16
2022-08-31T22:46:44.643Z,61.35
2022-08-31T22:49:11.832Z,61.75
2022-08-31T22:51:41.389Z,61.22
2022-08-31T22:54:10.495Z,61.53
2022-08-31T22:56:39.722Z,61.45
2022-08-31T22:59:14.280Z,61.08
2022-08-31T23:01:50.532Z,61.60
2022-08-31T23:04:21.772Z,61.53
2022-08-31T23:06:51.660Z,62.29
2022-08-31T23:09:21.625Z,62.08
2022-08-31T23:11:51.671Z,61.55
2022-08-31T23:14:22.910Z,62.02
2022-08-31T23:16:57.848Z,61.83
2022-08-31T23:19:36.907Z,62.63
2022-08-31T23:22:10.519Z,62.36
2022-08-31T23:24:46.262Z,62.35
2022-08-31T23:27:17.261Z,62.82
2022-08-31T23:29:49.235Z,62.67
2022-08-31T23:32:21.940Z,62.56
2022-08-31T23:34:52.511Z,62.33
2022-08-31T23:37:25.910Z,63.24
2022-08-31T23:39:55.967Z,63.18
2022-08-31T23:42:26.840Z,63.97
2022-08-31T23:44:54.855Z,63.53
2022-08-31T23:47:26.809Z,64.07
2022-08-31T23:49:54.836Z,64.04
2022-08-31T23:52:28.179Z,65.19
2022-08-31T23:54:59.640Z,64.49
2022-08-31T23:57:32.369Z,63.94
